createdAt,value
2023-07-18T00:02:38.268Z,24.08
2023-07-18T00:05:42.675Z,23.99
2023-07-18T00:08:46.109Z,23.81
2023-07-18T00:11:49.245Z,23.65
2023-07-18T00:14:52.093Z,23.62
2023-07-18T00:17:55.242Z,23.62
2023-07-18T00:20:58.105Z,23.60
2023-07-18T00:24:03.998Z,23.34
2023-07-18T00:27:07.165Z,23.23
2023-07-18T00:30:14.133Z,23.08
2023-07-18T00:33:17.343Z,22.96
2023-07-18T00:36:20.176Z,23.00
2023-07-18T00:39:22.969Z,22.98
2023-07-18T00:42:26.609Z,23.09
2023-07-18T00:45:30.607Z,23.14
2023-07-18T00:48:37.142Z,23.13
2023-07-18T00:51:40.980Z,23.09
2023-07-18T00:54:51.444Z,23.10
2023-07-18T00:57:55.267Z,23.12
2023-07-18T01:00:58.651Z,23.08
2023-07-18T01:04:01.656Z,23.04
2023-07-18T01:07:06.416Z,23.05
2023-07-18T01:10:45.020Z,23.05
2023-07-18T01:13:48.698Z,23.10
2023-07-18T01:16:53.696Z,23.14
2023-07-18T01:19:57.681Z,23.16
2023-07-18T01:23:02.139Z,23.14
2023-07-18T01:26:05.629Z,23.15
2023-07-18T01:29:09.895Z,23.15
2023-07-18T01:32:12.795Z,23.18
2023-07-18T01:35:18.389Z,23.22
2023-07-18T01:38:22.311Z,23.22
2023-07-18T01:41:25.228Z,23.27
2023-07-18T01:44:28.176Z,23.34
2023-07-18T01:47:34.439Z,23.34
2023-07-18T01:50:37.314Z,23.30
2023-07-18T01:53:40.062Z,23.25
2023-07-18T01:56:43.141Z,23.30
2023-07-18T01:59:45.933Z,23.40
2023-07-18T02:02:51.787Z,23.40
2023-07-18T02:05:54.687Z,23.33
2023-07-18T02:09:00.008Z,23.09
2023-07-18T02:12:04.344Z,23.03
2023-07-18T02:15:08.008Z,22.97
2023-07-18T02:18:14.914Z,23.05
2023-07-18T02:21:18.008Z,23.17
2023-07-18T02:24:21.166Z,23.12
2023-07-18T02:27:23.912Z,22.99
2023-07-18T02:30:26.668Z,22.93
2023-07-18T02:33:31.297Z,22.93
2023-07-18T02:36:34.658Z,22.89
2023-07-18T02:39:40.031Z,22.92
2023-07-18T02:42:42.883Z,22.88
2023-07-18T02:45:46.968Z,22.98
2023-07-18T02:48:51.445Z,23.03
2023-07-18T02:51:54.519Z,23.05
2023-07-18T02:54:58.515Z,23.10
2023-07-18T02:58:02.566Z,23.02
2023-07-18T03:01:07.829Z,22.97
2023-07-18T03:04:10.790Z,22.96
2023-07-18T03:07:14.977Z,23.00
2023-07-18T03:10:18.293Z,23.11
2023-07-18T03:13:26.025Z,23.18
2023-07-18T03:16:28.811Z,23.10
2023-07-18T03:19:33.047Z,22.94
2023-07-18T03:22:37.135Z,22.95
2023-07-18T03:25:39.956Z,22.98
2023-07-18T03:28:42.734Z,23.11
2023-07-18T03:31:45.835Z,23.27
2023-07-18T03:34:48.899Z,23.45
2023-07-18T03:37:54.243Z,23.54
2023-07-18T03:41:00.049Z,23.68
2023-07-18T03:44:04.902Z,23.89
2023-07-18T03:47:20.123Z,23.90
2023-07-18T03:50:25.008Z,23.88
2023-07-18T03:53:28.965Z,23.94
2023-07-18T03:56:32.698Z,23.83
2023-07-18T03:59:35.990Z,23.87
2023-07-18T04:02:38.818Z,24.12
2023-07-18T04:05:41.589Z,24.29
2023-07-18T04:08:44.676Z,24.47
2023-07-18T04:11:47.846Z,24.60
2023-07-18T04:14:51.470Z,24.71
2023-07-18T04:17:54.275Z,24.66
2023-07-18T04:21:03.762Z,24.76
2023-07-18T04:24:10.237Z,24.84
2023-07-18T04:27:13.620Z,24.95
2023-07-18T04:30:16.412Z,25.04
2023-07-18T04:33:19.177Z,25.07
2023-07-18T04:36:22.898Z,25.18
2023-07-18T04:39:26.234Z,25.21
2023-07-18T04:42:29.362Z,25.19
2023-07-18T04:45:32.790Z,25.32
2023-07-18T04:48:36.277Z,25.45
2023-07-18T04:51:39.406Z,25.66
2023-07-18T04:54:44.368Z,25.77
2023-07-18T04:57:48.442Z,26.03
2023-07-18T05:00:51.474Z,26.10
2023-07-18T05:03:58.062Z,26.06
2023-07-18T05:07:01.429Z,26.25
2023-07-18T05:10:04.759Z,26.03
2023-07-18T05:13:08.156Z,26.15
2023-07-18T05:16:13.768Z,26.32
2023-07-18T05:19:16.980Z,26.46
2023-07-18T05:22:19.752Z,26.52
2023-07-18T05:25:23.019Z,26.52
2023-07-18T05:28:25.995Z,26.71
2023-07-18T05:31:31.953Z,26.84
2023-07-18T05:34:34.797Z,26.62
2023-07-18T05:37:41.477Z,26.97
2023-07-18T05:40:44.346Z,26.99
2023-07-18T05:43:47.102Z,26.75
2023-07-18T05:46:49.870Z,26.67
2023-07-18T05:49:52.655Z,26.94
2023-07-18T05:52:55.620Z,26.60
2023-07-18T05:55:58.565Z,26.72
2023-07-18T05:59:01.716Z,26.82
2023-07-18T06:02:05.447Z,26.65
2023-07-18T06:05:09.059Z,26.73
2023-07-18T06:08:12.112Z,26.46
2023-07-18T06:11:18.871Z,26.22
2023-07-18T06:14:22.322Z,26.42
2023-07-18T06:17:25.129Z,26.47
2023-07-18T06:20:28.250Z,26.53
2023-07-18T06:23:31.407Z,26.60
2023-07-18T06:26:34.620Z,26.73
2023-07-18T06:29:37.537Z,26.56
2023-07-18T06:32:41.271Z,26.64
2023-07-18T06:35:52.996Z,26.88
2023-07-18T06:38:55.955Z,26.81
2023-07-18T06:41:59.055Z,26.87
2023-07-18T06:45:01.857Z,26.97
2023-07-18T06:48:05.134Z,26.95
2023-07-18T06:51:16.012Z,27.05
2023-07-18T06:54:20.194Z,27.32
2023-07-18T06:57:23.618Z,27.77
2023-07-18T07:00:26.739Z,27.71
2023-07-18T07:03:31.361Z,27.91
2023-07-18T07:06:34.635Z,28.03
2023-07-18T07:09:37.663Z,28.09
2023-07-18T07:12:40.785Z,28.01
2023-07-18T07:15:43.542Z,27.99
2023-07-18T07:18:50.560Z,28.23
2023-07-18T07:21:53.347Z,28.50
2023-07-18T07:24:56.517Z,28.26
2023-07-18T07:28:00.638Z,28.30
2023-07-18T07:31:06.804Z,28.69
2023-07-18T07:34:09.629Z,28.67
2023-07-18T07:37:12.419Z,28.62
2023-07-18T07:40:16.636Z,29.06
2023-07-18T07:43:20.699Z,29.44
2023-07-18T07:46:24.025Z,29.63
2023-07-18T07:49:27.469Z,29.99
2023-07-18T07:52:30.255Z,30.24
2023-07-18T07:55:33.071Z,30.58
2023-07-18T07:58:38.177Z,30.00
2023-07-18T08:01:41.166Z,29.84
2023-07-18T08:04:44.817Z,30.03
2023-07-18T08:07:48.009Z,30.07
2023-07-18T08:10:50.848Z,30.45
2023-07-18T08:13:54.780Z,30.65
2023-07-18T08:16:57.729Z,30.53
2023-07-18T08:20:01.001Z,30.74
2023-07-18T08:23:04.819Z,30.53
2023-07-18T08:26:08.409Z,30.64
2023-07-18T08:29:11.541Z,30.49
2023-07-18T08:32:14.518Z,30.61
2023-07-18T08:35:17.345Z,30.19
2023-07-18T08:38:20.329Z,29.92
2023-07-18T08:41:23.396Z,29.70
2023-07-18T08:44:26.370Z,30.25
2023-07-18T08:47:29.546Z,30.78
2023-07-18T08:50:34.934Z,30.82
2023-07-18T08:53:40.936Z,31.35
2023-07-18T08:56:46.750Z,31.06
2023-07-18T08:59:50.264Z,30.37
2023-07-18T09:02:53.111Z,30.00
2023-07-18T09:05:56.328Z,30.50
2023-07-18T09:08:59.281Z,31.11
2023-07-18T09:12:05.514Z,31.11
2023-07-18T09:15:09.273Z,30.82
2023-07-18T09:18:14.170Z,31.36
2023-07-18T09:21:18.013Z,31.54
2023-07-18T09:24:33.375Z,31.71
2023-07-18T09:27:39.717Z,31.81
2023-07-18T09:30:42.753Z,31.94
2023-07-18T09:33:47.884Z,30.64
2023-07-18T09:37:02.593Z,30.91
2023-07-18T09:40:08.382Z,30.83
2023-07-18T09:43:13.018Z,30.73
2023-07-18T09:46:17.084Z,31.06
2023-07-18T09:49:24.719Z,32.04
2023-07-18T09:52:29.432Z,32.36
2023-07-18T09:55:35.618Z,32.25
2023-07-18T09:58:40.592Z,32.69
2023-07-18T10:01:44.488Z,32.57
2023-07-18T10:04:49.459Z,31.95
2023-07-18T10:07:53.240Z,32.33
2023-07-18T10:11:09.174Z,31.39
2023-07-18T10:14:13.600Z,31.68
2023-07-18T10:17:30.700Z,31.97
2023-07-18T10:20:36.393Z,32.06
2023-07-18T10:23:42.520Z,31.96
2023-07-18T10:26:59.134Z,32.12
2023-07-18T10:30:05.538Z,32.33
2023-07-18T10:33:20.472Z,31.98
2023-07-18T10:36:26.735Z,32.44
2023-07-18T10:39:40.739Z,32.53
2023-07-18T10:42:44.997Z,32.51
2023-07-18T10:45:50.541Z,32.67
2023-07-18T10:48:53.995Z,32.60
2023-07-18T10:51:57.276Z,32.75
2023-07-18T10:55:01.940Z,32.76
2023-07-18T10:58:11.291Z,32.85
2023-07-18T11:01:14.179Z,33.02
2023-07-18T11:04:17.539Z,32.39
2023-07-18T11:07:37.113Z,32.19
2023-07-18T11:10:41.480Z,32.42
2023-07-18T11:13:44.810Z,32.58
2023-07-18T11:16:48.704Z,32.97
2023-07-18T11:19:51.499Z,33.19
2023-07-18T11:22:54.684Z,33.37
2023-07-18T11:25:58.611Z,33.44
2023-07-18T11:29:02.695Z,33.15
2023-07-18T11:32:06.027Z,33.10
2023-07-18T11:35:19.357Z,33.17
2023-07-18T11:38:25.622Z,32.38
2023-07-18T11:41:36.326Z,32.42
2023-07-18T11:44:43.718Z,33.14
2023-07-18T11:47:49.204Z,33.27
2023-07-18T11:50:52.461Z,33.44
2023-07-18T11:53:55.673Z,33.68
2023-07-18T11:56:58.758Z,33.71
2023-07-18T12:00:02.336Z,33.54
2023-07-18T12:03:15.666Z,34.06
2023-07-18T12:06:20.738Z,34.20
2023-07-18T12:09:24.108Z,34.36
2023-07-18T12:12:27.404Z,34.27
2023-07-18T12:15:30.675Z,34.29
2023-07-18T12:18:34.292Z,33.77
2023-07-18T12:21:37.772Z,33.15
2023-07-18T12:24:40.772Z,33.98
2023-07-18T12:27:46.845Z,33.05
2023-07-18T12:30:49.664Z,33.33
2023-07-18T12:33:53.243Z,33.55
2023-07-18T12:36:56.272Z,33.86
2023-07-18T12:39:59.035Z,33.21
2023-07-18T12:43:01.864Z,33.21
2023-07-18T12:46:07.692Z,32.94
2023-07-18T12:49:10.847Z,33.05
2023-07-18T12:52:14.218Z,32.99
2023-07-18T12:55:17.691Z,32.92
2023-07-18T12:58:20.490Z,33.01
2023-07-18T13:01:24.057Z,33.06
2023-07-18T13:04:26.829Z,32.68
2023-07-18T13:07:29.938Z,33.07
2023-07-18T13:10:32.837Z,32.70
2023-07-18T13:13:35.986Z,33.01
2023-07-18T13:16:40.548Z,32.75
2023-07-18T13:19:43.545Z,32.99
2023-07-18T13:22:47.587Z,33.18
2023-07-18T13:25:50.604Z,33.29
2023-07-18T13:28:53.504Z,34.42
2023-07-18T13:31:56.385Z,34.94
2023-07-18T13:34:59.829Z,35.20
2023-07-18T13:38:02.878Z,35.31
2023-07-18T13:41:09.288Z,35.77
2023-07-18T13:44:12.314Z,35.61
2023-07-18T13:47:17.382Z,35.56
2023-07-18T13:50:31.475Z,36.05
2023-07-18T13:53:35.339Z,36.31
2023-07-18T13:56:38.558Z,36.44
2023-07-18T13:59:46.452Z,36.59
2023-07-18T14:02:50.880Z,36.90
2023-07-18T14:05:59.739Z,36.75
2023-07-18T14:09:02.846Z,37.08
2023-07-18T14:12:06.634Z,37.16
2023-07-18T14:15:10.084Z,37.36
2023-07-18T14:18:13.434Z,37.64
2023-07-18T14:21:16.645Z,37.05
2023-07-18T14:24:21.015Z,36.91
2023-07-18T14:27:23.934Z,37.06
2023-07-18T14:30:26.729Z,37.52
2023-07-18T14:33:29.812Z,37.46
2023-07-18T14:36:32.584Z,37.51
2023-07-18T14:39:40.783Z,37.70
2023-07-18T14:42:44.477Z,37.85
2023-07-18T14:45:47.356Z,37.53
2023-07-18T14:48:50.444Z,37.46
2023-07-18T14:51:53.297Z,36.71
2023-07-18T14:54:58.282Z,36.12
2023-07-18T14:58:01.753Z,36.17
2023-07-18T15:01:06.462Z,36.20
2023-07-18T15:04:09.524Z,35.92
2023-07-18T15:07:12.407Z,36.70
2023-07-18T15:10:15.633Z,36.86
2023-07-18T15:13:18.398Z,37.03
2023-07-18T15:16:21.663Z,36.90
2023-07-18T15:19:27.759Z,37.12
2023-07-18T15:22:30.674Z,36.87
2023-07-18T15:25:34.675Z,36.74
2023-07-18T15:28:42.894Z,35.87
2023-07-18T15:31:45.768Z,36.14
2023-07-18T15:34:48.601Z,36.62
2023-07-18T15:37:51.437Z,36.46
2023-07-18T15:40:54.181Z,36.35
2023-07-18T15:43:57.733Z,36.55
2023-07-18T15:47:01.065Z,36.34
2023-07-18T15:50:04.173Z,36.97
2023-07-18T15:53:07.033Z,37.49
2023-07-18T15:56:15.525Z,37.25
2023-07-18T15:59:19.775Z,37.27
2023-07-18T16:02:23.236Z,37.28
2023-07-18T16:05:28.983Z,37.18
2023-07-18T16:08:34.861Z,37.41
2023-07-18T16:11:39.382Z,37.01
2023-07-18T16:14:42.489Z,36.86
2023-07-18T16:17:45.667Z,36.78
2023-07-18T16:20:49.196Z,36.81
2023-07-18T16:23:53.133Z,34.90
2023-07-18T16:26:55.939Z,35.58
2023-07-18T16:30:01.898Z,35.97
2023-07-18T16:33:05.079Z,36.23
2023-07-18T16:36:08.152Z,36.47
2023-07-18T16:42:29.636Z,36.18
2023-07-18T16:45:33.243Z,36.10
2023-07-18T16:48:36.921Z,36.07
2023-07-18T16:51:39.919Z,35.65
2023-07-18T16:54:42.928Z,35.61
2023-07-18T16:57:47.492Z,35.02
2023-07-18T17:00:50.655Z,34.79
2023-07-18T17:03:58.552Z,34.49
2023-07-18T17:07:01.368Z,33.98
2023-07-18T17:10:05.731Z,33.92
2023-07-18T17:13:09.658Z,33.70
2023-07-18T17:16:15.299Z,33.50
2023-07-18T17:19:18.103Z,33.31
2023-07-18T17:22:20.867Z,33.17
2023-07-18T17:25:25.068Z,32.88
2023-07-18T17:28:29.920Z,32.52
2023-07-18T17:31:32.976Z,32.42
2023-07-18T17:34:36.867Z,32.43
2023-07-18T17:37:41.456Z,32.14
2023-07-18T17:40:44.448Z,31.89
2023-07-18T17:43:47.159Z,31.82
2023-07-18T17:46:51.103Z,31.69
2023-07-18T17:49:53.874Z,31.53
2023-07-18T17:52:57.757Z,31.39
2023-07-18T17:56:02.007Z,31.18
2023-07-18T17:59:11.195Z,31.13
2023-07-18T18:02:14.349Z,31.04
2023-07-18T18:05:49.195Z,30.85
2023-07-18T18:08:52.002Z,30.62
2023-07-18T18:11:57.266Z,30.49
2023-07-18T18:15:03.927Z,30.34
2023-07-18T18:18:06.894Z,30.18
2023-07-18T18:21:10.111Z,29.94
2023-07-18T18:24:13.187Z,29.73
2023-07-18T18:27:16.407Z,29.76
2023-07-18T18:30:19.581Z,29.67
2023-07-18T18:33:23.405Z,29.31
2023-07-18T18:36:28.234Z,28.92
2023-07-18T18:39:31.517Z,28.93
2023-07-18T18:42:34.990Z,28.93
2023-07-18T18:45:38.493Z,28.71
2023-07-18T18:48:41.756Z,28.55
2023-07-18T18:51:45.299Z,28.61
2023-07-18T18:54:48.632Z,28.54
2023-07-18T18:57:52.381Z,28.51
2023-07-18T19:00:58.340Z,28.45
2023-07-18T19:04:01.294Z,28.45
2023-07-18T19:07:05.098Z,28.44
2023-07-18T19:10:13.921Z,28.35
2023-07-18T19:13:16.754Z,28.27
2023-07-18T19:16:32.901Z,28.12
2023-07-18T19:19:44.430Z,27.68
2023-07-18T19:22:49.986Z,27.55
2023-07-18T19:25:52.836Z,27.56
2023-07-18T19:28:55.672Z,27.41
2023-07-18T19:31:58.620Z,27.29
2023-07-18T19:35:04.418Z,27.04
2023-07-18T19:38:07.419Z,26.88
2023-07-18T19:41:10.170Z,26.94
2023-07-18T19:44:14.893Z,27.02
2023-07-18T19:47:17.918Z,27.06
2023-07-18T19:50:21.449Z,27.05
2023-07-18T19:53:25.908Z,27.07
2023-07-18T19:56:28.758Z,27.15
2023-07-18T19:59:32.333Z,27.15
2023-07-18T20:02:35.480Z,27.12
2023-07-18T20:05:38.918Z,27.15
2023-07-18T20:08:42.202Z,26.99
2023-07-18T20:11:45.000Z,27.06
2023-07-18T20:14:48.528Z,27.19
2023-07-18T20:17:51.846Z,27.24
2023-07-18T20:20:54.901Z,27.28
2023-07-18T20:23:58.302Z,27.26
2023-07-18T20:27:01.882Z,27.31
2023-07-18T20:30:09.546Z,27.43
2023-07-18T20:33:12.270Z,27.54
2023-07-18T20:36:21.014Z,27.57
2023-07-18T20:39:27.585Z,27.95
2023-07-18T20:42:34.679Z,27.88
2023-07-18T20:45:38.213Z,27.79
2023-07-18T20:48:41.063Z,27.69
2023-07-18T20:51:43.893Z,27.67
2023-07-18T20:54:46.758Z,27.48
2023-07-18T20:57:49.742Z,27.53
2023-07-18T21:00:52.604Z,27.53
2023-07-18T21:03:55.381Z,27.44
2023-07-18T21:06:59.358Z,27.23
2023-07-18T21:10:02.190Z,27.12
2023-07-18T21:13:06.732Z,26.97
2023-07-18T21:16:12.947Z,26.86
2023-07-18T21:19:15.828Z,26.84
2023-07-18T21:22:18.618Z,26.88
2023-07-18T21:25:21.588Z,26.77
2023-07-18T21:28:24.417Z,26.68
2023-07-18T21:31:27.177Z,26.67
2023-07-18T21:34:30.621Z,26.70
2023-07-18T21:37:33.338Z,26.71
2023-07-18T21:40:36.168Z,26.66
2023-07-18T21:43:39.120Z,26.74
2023-07-18T21:46:41.983Z,26.74
2023-07-18T21:49:45.464Z,26.77
2023-07-18T21:52:48.317Z,26.82
2023-07-18T21:55:51.074Z,26.83
2023-07-18T21:58:54.805Z,26.83
2023-07-18T22:01:58.425Z,26.89
2023-07-18T22:05:11.607Z,26.79
2023-07-18T22:08:14.433Z,26.75
2023-07-18T22:11:17.460Z,26.61
2023-07-18T22:14:20.781Z,26.49
2023-07-18T22:17:23.695Z,26.21
2023-07-18T22:20:26.449Z,26.20
2023-07-18T22:23:30.350Z,26.13
2023-07-18T22:26:33.175Z,25.91
2023-07-18T22:29:36.171Z,25.87
2023-07-18T22:32:38.999Z,25.77
2023-07-18T22:35:45.515Z,25.72
2023-07-18T22:38:48.684Z,25.77
2023-07-18T22:41:53.191Z,25.75
2023-07-18T22:44:56.258Z,25.54
2023-07-18T22:48:00.218Z,25.39
2023-07-18T22:51:03.256Z,25.36
2023-07-18T22:54:06.130Z,25.28
2023-07-18T22:57:09.402Z,25.39
2023-07-18T23:00:13.818Z,25.19
2023-07-18T23:03:16.786Z,25.12
2023-07-18T23:06:19.864Z,25.05
2023-07-18T23:09:22.949Z,25.05
2023-07-18T23:12:25.668Z,25.04
2023-07-18T23:15:30.205Z,25.02
2023-07-18T23:18:33.027Z,25.06
2023-07-18T23:21:36.175Z,24.93
2023-07-18T23:24:41.073Z,24.95
2023-07-18T23:27:44.342Z,24.88
2023-07-18T23:30:47.140Z,24.83
2023-07-18T23:33:49.950Z,24.92
2023-07-18T23:36:54.094Z,24.93
2023-07-18T23:39:57.649Z,25.00
2023-07-18T23:43:00.751Z,24.89
2023-07-18T23:46:04.667Z,24.88
2023-07-18T23:49:07.676Z,24.90
2023-07-18T23:52:10.768Z,24.82
2023-07-18T23:55:13.729Z,24.60
2023-07-18T23:58:17.204Z,24.54
